createdAt,value
2018-08-10T00:00:48.485Z,20.56
2018-08-10T00:03:18.813Z,20.51
2018-08-10T00:05:47.158Z,20.57
2018-08-10T00:08:15.504Z,20.56
2018-08-10T00:10:43.835Z,20.58
2018-08-10T00:13:12.172Z,20.55
2018-08-10T00:15:41.533Z,20.56
2018-08-10T00:18:10.826Z,20.48
2018-08-10T00:20:40.109Z,20.45
2018-08-10T00:23:09.803Z,20.39
2018-08-10T00:25:38.996Z,20.37
2018-08-10T00:28:07.696Z,20.31
2018-08-10T00:30:37.357Z,20.36
2018-08-10T00:33:05.972Z,20.29
2018-08-10T00:35:35.337Z,20.22
2018-08-10T00:38:05.222Z,20.18
2018-08-10T00:40:34.902Z,20.18
2018-08-10T00:43:04.930Z,20.16
2018-08-10T00:45:35.008Z,20.17
2018-08-10T00:48:05.119Z,20.22
2018-08-10T00:50:35.041Z,20.15
2018-08-10T00:53:04.933Z,20.14
2018-08-10T00:55:35.801Z,20.13
2018-08-10T00:58:06.032Z,20.15
2018-08-10T01:00:35.401Z,20.06
2018-08-10T01:03:04.204Z,20.05
2018-08-10T01:05:34.481Z,20.09
2018-08-10T01:08:02.831Z,20.01
2018-08-10T01:10:32.369Z,20.00
2018-08-10T01:13:01.776Z,20.01
2018-08-10T01:15:31.228Z,20.01
2018-08-10T01:18:00.472Z,19.97
2018-08-10T01:20:29.814Z,19.98
2018-08-10T01:23:04.614Z,20.04
2018-08-10T01:25:34.913Z,19.98
2018-08-10T01:28:04.955Z,19.99
2018-08-10T01:30:35.861Z,19.92
2018-08-10T01:33:05.138Z,19.93
2018-08-10T01:35:34.054Z,19.89
2018-08-10T01:38:03.230Z,19.90
2018-08-10T01:40:31.597Z,19.85
2018-08-10T01:43:00.014Z,19.83
2018-08-10T01:48:01.422Z,19.73
2018-08-10T01:50:29.837Z,19.76
2018-08-10T01:52:58.181Z,19.71
2018-08-10T01:55:26.652Z,19.66
2018-08-10T01:57:55.088Z,19.57
2018-08-10T02:00:23.624Z,19.67
2018-08-10T02:02:52.134Z,19.61
2018-08-10T02:05:21.101Z,19.54
2018-08-10T02:07:50.465Z,19.53
2018-08-10T02:10:19.849Z,19.47
2018-08-10T02:12:53.018Z,19.49
2018-08-10T02:15:21.368Z,19.53
2018-08-10T02:17:49.985Z,19.44
2018-08-10T02:20:19.901Z,19.34
2018-08-10T02:22:49.572Z,19.34
2018-08-10T02:25:20.165Z,19.31
2018-08-10T02:27:50.857Z,19.32
2018-08-10T02:30:20.405Z,19.46
2018-08-10T02:32:51.193Z,19.47
2018-08-10T02:35:20.241Z,19.55
2018-08-10T02:37:49.669Z,19.55
2018-08-10T02:40:20.109Z,19.44
2018-08-10T02:42:49.254Z,19.47
2018-08-10T02:45:18.624Z,19.53
2018-08-10T02:47:47.493Z,19.56
2018-08-10T02:50:16.008Z,19.51
2018-08-10T02:52:44.563Z,19.45
2018-08-10T02:55:13.180Z,19.42
2018-08-10T02:57:41.854Z,19.38
2018-08-10T03:00:12.114Z,19.28
2018-08-10T03:02:40.550Z,19.29
2018-08-10T03:05:09.711Z,19.27
2018-08-10T03:07:38.348Z,19.30
2018-08-10T03:10:07.564Z,19.36
2018-08-10T03:12:36.666Z,19.40
2018-08-10T03:15:07.800Z,19.44
2018-08-10T03:17:37.329Z,19.43
2018-08-10T03:20:07.719Z,19.42
2018-08-10T03:22:37.005Z,19.44
2018-08-10T03:25:06.927Z,19.54
2018-08-10T03:27:37.396Z,19.53
2018-08-10T03:30:07.916Z,19.66
2018-08-10T03:32:37.054Z,19.59
2018-08-10T03:35:06.346Z,19.56
2018-08-10T03:37:35.136Z,19.64
2018-08-10T03:40:04.164Z,19.70
2018-08-10T03:42:32.673Z,19.68
2018-08-10T03:45:01.000Z,19.78
2018-08-10T03:47:29.381Z,19.79
2018-08-10T03:49:57.742Z,19.85
2018-08-10T03:52:26.120Z,19.87
2018-08-10T03:54:54.473Z,19.91
2018-08-10T03:57:22.916Z,19.94
2018-08-10T03:59:51.244Z,20.01
2018-08-10T04:02:21.100Z,19.93
2018-08-10T04:04:50.081Z,19.99
2018-08-10T04:07:19.600Z,20.07
2018-08-10T04:09:48.543Z,20.07
2018-08-10T04:12:16.972Z,20.10
2018-08-10T04:14:45.333Z,20.09
2018-08-10T04:17:20.993Z,20.10
2018-08-10T04:19:50.289Z,20.16
2018-08-10T04:22:20.305Z,20.25
2018-08-10T04:24:49.333Z,20.29
2018-08-10T04:27:18.961Z,20.29
2018-08-10T04:29:47.577Z,20.28
2018-08-10T04:32:15.901Z,20.29
2018-08-10T04:34:44.284Z,20.36
2018-08-10T04:37:12.657Z,20.38
2018-08-10T04:39:41.072Z,20.37
2018-08-10T04:42:09.440Z,20.47
2018-08-10T04:44:37.833Z,20.42
2018-08-10T04:47:06.961Z,20.37
2018-08-10T04:49:36.077Z,20.34
2018-08-10T04:52:04.900Z,20.33
2018-08-10T04:54:33.246Z,20.35
2018-08-10T04:57:01.585Z,20.39
2018-08-10T04:59:29.920Z,20.38
2018-08-10T05:01:58.358Z,20.31
2018-08-10T05:04:26.691Z,20.37
2018-08-10T05:06:55.189Z,20.38
2018-08-10T05:09:23.534Z,20.30
2018-08-10T05:11:51.866Z,20.31
2018-08-10T05:14:21.698Z,20.38
2018-08-10T05:16:51.133Z,20.38
2018-08-10T05:19:20.045Z,20.38
2018-08-10T05:21:49.469Z,20.36
2018-08-10T05:24:18.613Z,20.47
2018-08-10T05:26:47.029Z,20.47
2018-08-10T05:29:15.458Z,20.49
2018-08-10T05:31:43.910Z,20.49
2018-08-10T05:34:12.269Z,20.49
2018-08-10T05:36:40.758Z,20.53
2018-08-10T05:39:10.537Z,20.46
2018-08-10T05:41:39.056Z,20.57
2018-08-10T05:44:07.554Z,20.60
2018-08-10T05:46:36.690Z,20.60
2018-08-10T05:49:06.313Z,20.60
2018-08-10T05:51:35.171Z,20.68
2018-08-10T05:54:04.179Z,20.79
2018-08-10T05:56:32.986Z,20.86
2018-08-10T05:59:01.308Z,20.97
2018-08-10T06:01:29.731Z,21.03
2018-08-10T06:03:58.646Z,21.10
2018-08-10T06:06:26.910Z,21.20
2018-08-10T06:08:55.253Z,21.32
2018-08-10T06:11:23.654Z,21.36
2018-08-10T06:13:51.984Z,21.40
2018-08-10T06:16:21.217Z,21.38
2018-08-10T06:18:50.264Z,21.38
2018-08-10T06:21:19.074Z,21.26
2018-08-10T06:23:47.411Z,21.32
2018-08-10T06:26:15.864Z,21.19
2018-08-10T06:28:44.264Z,21.06
2018-08-10T06:31:12.649Z,20.94
2018-08-10T06:33:41.152Z,20.92
2018-08-10T06:36:09.529Z,20.83
2018-08-10T06:38:37.866Z,20.81
2018-08-10T06:41:07.385Z,20.66
2018-08-10T06:43:36.844Z,20.72
2018-08-10T06:46:06.274Z,20.67
2018-08-10T06:48:34.883Z,20.62
2018-08-10T06:51:03.320Z,20.53
2018-08-10T06:53:31.937Z,20.44
2018-08-10T06:56:00.589Z,20.39
2018-08-10T06:58:29.018Z,20.27
2018-08-10T07:00:57.395Z,20.19
2018-08-10T07:03:27.429Z,20.12
2018-08-10T07:05:56.001Z,20.08
2018-08-10T07:08:24.602Z,20.01
2018-08-10T07:10:52.945Z,19.99
2018-08-10T07:13:21.416Z,20.06
2018-08-10T07:15:50.978Z,20.16
2018-08-10T07:18:20.105Z,20.19
2018-08-10T07:20:49.310Z,20.30
2018-08-10T07:23:17.644Z,20.20
2018-08-10T07:25:45.976Z,20.33
2018-08-10T07:28:14.496Z,20.61
2018-08-10T07:30:43.019Z,20.62
2018-08-10T07:33:11.344Z,20.59
2018-08-10T07:35:39.665Z,20.45
2018-08-10T07:38:08.023Z,20.47
2018-08-10T07:40:37.320Z,20.34
2018-08-10T07:43:05.840Z,20.41
2018-08-10T07:45:35.441Z,20.35
2018-08-10T07:48:04.163Z,20.36
2018-08-10T07:50:32.587Z,20.33
2018-08-10T07:53:00.993Z,20.38
2018-08-10T07:55:29.321Z,20.24
2018-08-10T07:57:57.693Z,20.23
2018-08-10T08:00:26.785Z,20.14
2018-08-10T08:02:56.077Z,20.18
2018-08-10T08:05:24.444Z,20.15
2018-08-10T08:07:53.075Z,20.14
2018-08-10T08:10:21.497Z,20.12
2018-08-10T08:12:50.738Z,19.97
2018-08-10T08:15:19.057Z,19.71
2018-08-10T08:17:47.417Z,19.74
2018-08-10T08:20:15.742Z,19.83
2018-08-10T08:22:44.081Z,20.01
2018-08-10T08:25:12.625Z,20.24
2018-08-10T08:27:40.981Z,20.34
2018-08-10T08:30:09.614Z,20.46
2018-08-10T08:32:38.186Z,20.38
2018-08-10T08:35:07.671Z,20.60
2018-08-10T08:37:36.433Z,20.65
2018-08-10T08:40:19.863Z,20.83
2018-08-10T08:42:49.964Z,20.98
2018-08-10T08:46:08.232Z,20.93
2018-08-10T08:48:39.597Z,20.97
2018-08-10T08:51:10.346Z,21.11
2018-08-10T08:53:38.705Z,21.06
2018-08-10T08:56:15.136Z,21.27
2018-08-10T08:58:44.421Z,21.26
2018-08-10T09:01:13.141Z,21.16
2018-08-10T09:03:50.985Z,21.17
2018-08-10T09:06:50.640Z,21.14
2018-08-10T09:09:30.342Z,21.19
2018-08-10T09:11:58.686Z,21.39
2018-08-10T09:14:43.949Z,21.31
2018-08-10T09:17:12.452Z,21.43
2018-08-10T09:19:41.652Z,21.01
2018-08-10T09:22:10.541Z,21.20
2018-08-10T09:24:39.049Z,21.06
2018-08-10T09:27:07.542Z,21.17
2018-08-10T09:29:37.162Z,21.15
2018-08-10T09:32:06.592Z,21.19
2018-08-10T09:34:35.425Z,21.19
2018-08-10T09:37:04.598Z,21.23
2018-08-10T09:39:32.949Z,21.18
2018-08-10T09:42:02.808Z,21.28
2018-08-10T09:44:31.776Z,21.25
2018-08-10T09:47:00.689Z,21.40
2018-08-10T09:49:31.560Z,21.45
2018-08-10T09:52:00.015Z,21.63
2018-08-10T09:54:28.529Z,21.75
2018-08-10T09:57:00.457Z,21.71
2018-08-10T09:59:28.820Z,22.09
2018-08-10T10:02:02.561Z,22.51
2018-08-10T10:04:30.926Z,22.58
2018-08-10T10:06:59.413Z,22.74
2018-08-10T10:09:27.764Z,22.83
2018-08-10T10:11:56.194Z,22.82
2018-08-10T10:14:24.538Z,22.71
2018-08-10T10:16:52.903Z,22.61
2018-08-10T10:19:21.281Z,22.58
2018-08-10T10:21:50.906Z,22.73
2018-08-10T10:24:19.555Z,22.61
2018-08-10T10:26:48.669Z,22.81
2018-08-10T10:29:17.016Z,22.91
2018-08-10T10:31:45.335Z,23.15
2018-08-10T10:34:13.802Z,23.22
2018-08-10T10:36:42.269Z,23.07
2018-08-10T10:39:12.293Z,23.03
2018-08-10T10:41:40.964Z,23.06
2018-08-10T10:44:09.954Z,23.29
2018-08-10T10:46:38.286Z,23.44
2018-08-10T10:49:07.690Z,23.11
2018-08-10T10:51:36.618Z,23.21
2018-08-10T10:54:05.406Z,23.38
2018-08-10T10:56:35.969Z,23.54
2018-08-10T10:59:05.328Z,23.89
2018-08-10T11:01:34.054Z,24.03
2018-08-10T11:04:02.402Z,23.86
2018-08-10T11:06:30.758Z,23.83
2018-08-10T11:08:59.165Z,24.00
2018-08-10T11:11:27.588Z,24.14
2018-08-10T11:13:55.940Z,23.86
2018-08-10T11:16:24.279Z,23.91
2018-08-10T11:18:52.622Z,23.79
2018-08-10T11:21:21.875Z,23.65
2018-08-10T11:23:50.882Z,23.25
2018-08-10T11:26:19.247Z,23.29
2018-08-10T11:28:49.083Z,23.04
2018-08-10T11:31:17.611Z,23.07
2018-08-10T11:33:45.980Z,23.11
2018-08-10T11:36:14.313Z,23.10
2018-08-10T11:38:42.750Z,23.36
2018-08-10T11:41:11.162Z,23.66
2018-08-10T11:43:39.520Z,23.80
2018-08-10T11:46:08.121Z,23.89
2018-08-10T11:48:37.221Z,23.79
2018-08-10T11:51:06.281Z,23.95
2018-08-10T11:53:35.460Z,24.18
2018-08-10T11:56:03.964Z,24.49
2018-08-10T11:58:32.374Z,24.60
2018-08-10T12:01:00.786Z,24.64
2018-08-10T12:03:29.139Z,24.67
2018-08-10T12:05:57.548Z,24.54
2018-08-10T12:08:26.153Z,24.76
2018-08-10T12:10:54.505Z,24.93
2018-08-10T12:13:23.178Z,25.09
2018-08-10T12:15:51.516Z,25.36
2018-08-10T12:18:20.908Z,25.48
2018-08-10T12:20:49.480Z,25.54
2018-08-10T12:23:18.585Z,25.61
2018-08-10T12:25:47.010Z,25.55
2018-08-10T12:28:15.404Z,25.51
2018-08-10T12:30:43.730Z,25.24
2018-08-10T12:33:12.151Z,24.73
2018-08-10T12:35:40.597Z,24.91
2018-08-10T12:38:09.058Z,25.16
2018-08-10T12:40:37.697Z,25.02
2018-08-10T12:43:06.317Z,24.86
2018-08-10T12:45:36.389Z,24.55
2018-08-10T12:48:06.048Z,24.53
2018-08-10T12:50:35.626Z,24.66
2018-08-10T12:53:04.476Z,24.92
2018-08-10T12:55:32.902Z,25.08
2018-08-10T12:58:01.516Z,25.36
2018-08-10T13:00:29.901Z,25.49
2018-08-10T13:02:58.664Z,25.41
2018-08-10T13:05:27.034Z,25.73
2018-08-10T13:07:55.415Z,25.78
2018-08-10T13:10:23.858Z,25.75
2018-08-10T13:12:52.209Z,25.34
2018-08-10T13:15:22.005Z,25.09
2018-08-10T13:17:50.594Z,25.05
2018-08-10T13:20:19.056Z,25.33
2018-08-10T13:22:47.497Z,25.39
2018-08-10T13:25:15.937Z,25.26
2018-08-10T13:27:44.289Z,25.01
2018-08-10T13:30:13.078Z,24.75
2018-08-10T13:32:41.552Z,24.69
2018-08-10T13:35:09.966Z,24.53
2018-08-10T13:37:38.331Z,24.86
2018-08-10T13:40:07.797Z,25.08
2018-08-10T13:42:37.269Z,24.94
2018-08-10T13:45:08.780Z,25.05
2018-08-10T13:47:37.205Z,25.34
2018-08-10T13:50:08.229Z,25.44
2018-08-10T13:52:37.941Z,25.26
2018-08-10T13:55:07.529Z,25.17
2018-08-10T13:57:36.363Z,25.12
2018-08-10T14:00:06.708Z,25.03
2018-08-10T14:02:35.541Z,25.27
2018-08-10T14:05:04.519Z,25.71
2018-08-10T14:07:33.315Z,26.24
2018-08-10T14:10:04.978Z,26.51
2018-08-10T14:12:33.862Z,26.44
2018-08-10T14:15:03.161Z,26.34
2018-08-10T14:17:31.622Z,25.85
2018-08-10T14:19:59.989Z,25.51
2018-08-10T14:22:28.342Z,25.54
2018-08-10T14:24:56.987Z,25.47
2018-08-10T14:27:25.358Z,25.65
2018-08-10T14:29:53.884Z,25.56
2018-08-10T14:32:22.224Z,25.40
2018-08-10T14:34:52.305Z,25.45
2018-08-10T14:37:21.705Z,25.66
2018-08-10T14:39:51.307Z,25.90
2018-08-10T14:42:20.487Z,25.92
2018-08-10T14:44:49.513Z,26.03
2018-08-10T14:47:19.554Z,26.32
2018-08-10T14:49:48.882Z,26.59
2018-08-10T14:52:17.323Z,26.80
2018-08-10T14:54:45.665Z,27.11
2018-08-10T14:57:14.090Z,26.49
2018-08-10T14:59:42.530Z,26.33
2018-08-10T15:02:10.905Z,25.82
2018-08-10T15:04:39.281Z,25.67
2018-08-10T15:07:08.005Z,26.23
2018-08-10T15:09:37.335Z,26.90
2018-08-10T15:12:06.678Z,27.43
2018-08-10T15:14:35.622Z,27.88
2018-08-10T15:17:04.125Z,27.40
2018-08-10T15:19:32.483Z,26.81
2018-08-10T15:22:00.859Z,26.91
2018-08-10T15:24:29.272Z,27.05
2018-08-10T15:26:57.693Z,26.25
2018-08-10T15:29:26.034Z,26.86
2018-08-10T15:31:54.401Z,27.15
2018-08-10T15:34:22.732Z,27.56
2018-08-10T15:36:51.798Z,28.15
2018-08-10T15:39:21.077Z,28.44
2018-08-10T15:41:49.949Z,28.88
2018-08-10T15:44:18.525Z,29.17
2018-08-10T15:46:46.887Z,29.19
2018-08-10T15:49:15.237Z,28.99
2018-08-10T15:51:43.565Z,28.63
2018-08-10T15:54:11.937Z,28.95
2018-08-10T15:56:40.746Z,29.25
2018-08-10T15:59:09.092Z,28.97
2018-08-10T16:01:37.469Z,28.29
2018-08-10T16:04:07.405Z,27.59
2018-08-10T16:06:37.045Z,26.92
2018-08-10T16:09:08.673Z,26.33
2018-08-10T16:11:38.005Z,25.85
2018-08-10T16:14:07.072Z,25.45
2018-08-10T16:16:36.776Z,25.18
2018-08-10T16:19:05.651Z,24.87
2018-08-10T16:21:34.239Z,24.69
2018-08-10T16:24:02.596Z,24.49
2018-08-10T16:26:31.101Z,24.22
2018-08-10T16:28:59.761Z,24.19
2018-08-10T16:31:28.209Z,24.16
2018-08-10T16:33:56.562Z,23.98
2018-08-10T16:36:24.969Z,23.91
2018-08-10T16:38:53.314Z,23.88
2018-08-10T16:41:21.682Z,23.87
2018-08-10T16:43:51.105Z,23.80
2018-08-10T16:46:20.440Z,23.61
2018-08-10T16:48:49.689Z,23.62
2018-08-10T16:51:18.017Z,23.50
2018-08-10T16:53:46.508Z,23.38
2018-08-10T16:56:14.857Z,23.34
2018-08-10T16:58:43.217Z,23.23
2018-08-10T17:01:11.668Z,23.16
2018-08-10T17:03:40.085Z,23.12
2018-08-10T17:06:08.483Z,23.12
2018-08-10T17:08:38.053Z,23.20
2018-08-10T17:11:07.243Z,23.00
2018-08-10T17:13:36.682Z,22.96
2018-08-10T17:16:05.682Z,22.90
2018-08-10T17:18:34.689Z,22.84
2018-08-10T17:21:03.037Z,22.78
2018-08-10T17:23:31.539Z,22.80
2018-08-10T17:25:59.891Z,22.75
2018-08-10T17:28:28.358Z,22.70
2018-08-10T17:30:57.016Z,22.61
2018-08-10T17:33:25.373Z,22.64
2018-08-10T17:35:53.713Z,22.53
2018-08-10T17:38:22.081Z,22.50
2018-08-10T17:40:51.105Z,22.39
2018-08-10T17:43:20.454Z,22.21
2018-08-10T17:45:49.689Z,22.16
2018-08-10T17:48:18.243Z,22.07
2018-08-10T17:50:46.604Z,21.92
2018-08-10T17:53:14.944Z,21.78
2018-08-10T17:55:43.500Z,21.69
2018-08-10T17:58:12.007Z,21.62
2018-08-10T18:00:40.360Z,21.53
2018-08-10T18:03:08.796Z,21.47
2018-08-10T18:05:38.707Z,21.35
2018-08-10T18:08:08.449Z,21.23
2018-08-10T18:10:37.995Z,21.10
2018-08-10T18:13:06.400Z,20.92
2018-08-10T18:15:34.921Z,20.78
2018-08-10T18:18:03.378Z,20.63
2018-08-10T18:20:31.900Z,20.45
2018-08-10T18:23:00.355Z,20.33
2018-08-10T18:25:28.857Z,20.15
2018-08-10T18:27:58.237Z,20.03
2018-08-10T18:30:26.891Z,19.85
2018-08-10T18:32:55.309Z,19.66
2018-08-10T18:35:23.708Z,19.56
2018-08-10T18:37:52.395Z,19.42
2018-08-10T18:40:21.390Z,19.27
2018-08-10T18:42:51.682Z,19.16
2018-08-10T18:45:22.174Z,19.07
2018-08-10T18:47:51.271Z,19.03
2018-08-10T18:50:21.126Z,18.95
2018-08-10T18:52:50.135Z,18.90
2018-08-10T18:55:21.474Z,18.81
2018-08-10T18:57:51.043Z,18.81
2018-08-10T19:00:23.184Z,18.77
2018-08-10T19:02:51.903Z,18.71
2018-08-10T19:05:21.358Z,18.66
2018-08-10T19:07:50.669Z,18.61
2018-08-10T19:10:22.365Z,18.52
2018-08-10T19:12:51.642Z,18.44
2018-08-10T19:15:21.386Z,18.38
2018-08-10T19:17:51.016Z,18.33
2018-08-10T19:20:20.658Z,18.30
2018-08-10T19:22:50.596Z,18.25
2018-08-10T19:25:20.940Z,18.16
2018-08-10T19:27:50.917Z,18.08
2018-08-10T19:30:21.200Z,17.96
2018-08-10T19:32:51.423Z,17.80
2018-08-10T19:35:20.937Z,17.72
2018-08-10T19:37:51.368Z,17.69
2018-08-10T19:40:21.285Z,17.67
2018-08-10T19:42:51.039Z,17.66
2018-08-10T19:45:20.638Z,17.67
2018-08-10T19:47:50.813Z,17.68
2018-08-10T19:50:23.509Z,17.66
2018-08-10T19:52:52.854Z,17.62
2018-08-10T19:55:21.917Z,17.56
2018-08-10T19:57:51.001Z,17.49
2018-08-10T20:00:21.252Z,17.43
2018-08-10T20:02:52.031Z,17.37
2018-08-10T20:05:22.078Z,17.31
2018-08-10T20:07:52.518Z,17.26
2018-08-10T20:10:22.861Z,17.22
2018-08-10T20:12:52.030Z,17.16
2018-08-10T20:15:22.394Z,17.11
2018-08-10T20:17:52.716Z,17.05
2018-08-10T20:20:21.531Z,17.01
2018-08-10T20:22:51.281Z,16.96
2018-08-10T20:25:20.812Z,16.93
2018-08-10T20:27:51.100Z,16.88
2018-08-10T20:30:21.487Z,16.84
2018-08-10T20:32:51.496Z,16.77
2018-08-10T20:35:21.872Z,16.75
2018-08-10T20:37:50.969Z,16.72
2018-08-10T20:40:20.990Z,16.70
2018-08-10T20:42:50.541Z,16.66
2018-08-10T20:45:21.277Z,16.60
2018-08-10T20:47:50.628Z,16.52
2018-08-10T20:50:23.106Z,16.43
2018-08-10T20:52:52.095Z,16.39
2018-08-10T20:55:22.529Z,16.37
2018-08-10T20:57:52.067Z,16.32
2018-08-10T21:00:21.759Z,16.30
2018-08-10T21:02:51.156Z,16.25
2018-08-10T21:05:20.702Z,16.21
2018-08-10T21:07:50.421Z,16.13
2018-08-10T21:10:19.622Z,16.05
2018-08-10T21:12:49.832Z,15.98
2018-08-10T21:15:19.877Z,15.90
2018-08-10T21:17:49.272Z,15.82
2018-08-10T21:20:19.538Z,15.74
2018-08-10T21:22:49.330Z,15.68
2018-08-10T21:25:18.831Z,15.63
2018-08-10T21:27:47.289Z,15.54
2018-08-10T21:30:18.501Z,15.58
2018-08-10T21:32:47.235Z,15.49
2018-08-10T21:35:15.761Z,15.48
2018-08-10T21:37:44.221Z,15.45
2018-08-10T21:40:12.770Z,15.55
2018-08-10T21:42:42.155Z,15.61
2018-08-10T21:45:10.526Z,15.67
2018-08-10T21:47:39.301Z,15.74
2018-08-10T21:50:10.138Z,15.86
2018-08-10T21:52:38.534Z,16.00
2018-08-10T21:55:08.090Z,16.04
2018-08-10T21:57:37.744Z,16.11
2018-08-10T22:00:14.093Z,16.12
2018-08-10T22:02:42.555Z,16.12
2018-08-10T22:05:10.905Z,16.11
2018-08-10T22:07:40.282Z,16.14
2018-08-10T22:10:08.662Z,16.21
2018-08-10T22:12:48.553Z,16.24
2018-08-10T22:15:22.840Z,16.28
2018-08-10T22:17:56.437Z,16.33
2018-08-10T22:20:24.968Z,16.42
2018-08-10T22:22:53.333Z,16.48
2018-08-10T22:25:21.853Z,16.60
2018-08-10T22:27:50.733Z,16.58
2018-08-10T22:30:19.101Z,16.55
2018-08-10T22:32:47.476Z,16.52
2018-08-10T22:35:15.909Z,16.54
2018-08-10T22:37:44.281Z,16.55
2018-08-10T22:40:12.641Z,16.56
2018-08-10T22:42:41.085Z,16.55
2018-08-10T22:45:09.503Z,16.60
2018-08-10T22:47:37.938Z,16.76
2018-08-10T22:50:08.549Z,16.67
2018-08-10T22:52:38.454Z,16.70
2018-08-10T22:55:07.989Z,16.81
2018-08-10T22:57:37.468Z,16.79
2018-08-10T23:00:06.891Z,16.88
2018-08-10T23:02:35.865Z,16.98
2018-08-10T23:05:05.960Z,16.83
2018-08-10T23:07:34.423Z,16.81
2018-08-10T23:10:02.801Z,16.74
2018-08-10T23:12:31.353Z,16.66
2018-08-10T23:14:59.818Z,16.66
2018-08-10T23:17:28.157Z,16.68
2018-08-10T23:19:56.480Z,16.60
2018-08-10T23:22:24.829Z,16.47
2018-08-10T23:24:53.182Z,16.38
2018-08-10T23:27:21.640Z,16.29
2018-08-10T23:29:51.091Z,16.11
2018-08-10T23:32:20.606Z,16.03
2018-08-10T23:34:49.637Z,15.99
2018-08-10T23:37:18.102Z,15.84
2018-08-10T23:39:46.545Z,15.77
2018-08-10T23:42:14.880Z,15.83
2018-08-10T23:44:43.278Z,15.82
2018-08-10T23:47:11.628Z,15.79
2018-08-10T23:49:39.984Z,15.78
2018-08-10T23:52:08.325Z,15.85
2018-08-10T23:54:38.160Z,15.84
2018-08-10T23:57:07.633Z,15.84
2018-08-10T23:59:36.816Z,15.81
